createdAt,value
2023-05-14T00:02:01.825Z,91.99
2023-05-14T00:05:05.122Z,92.39
2023-05-14T00:08:07.722Z,92.44
2023-05-14T00:11:10.215Z,92.83
2023-05-14T00:14:12.605Z,93.47
2023-05-14T00:17:15.031Z,93.44
2023-05-14T00:20:17.541Z,93.56
2023-05-14T00:23:20.328Z,93.43
2023-05-14T00:26:22.846Z,93.06
2023-05-14T00:29:25.309Z,92.28
2023-05-14T00:32:27.836Z,91.54
2023-05-14T00:35:30.639Z,91.26
2023-05-14T00:38:33.072Z,90.64
2023-05-14T00:41:35.803Z,88.91
2023-05-14T00:44:38.259Z,86.93
2023-05-14T00:47:41.020Z,85.97
2023-05-14T00:50:43.728Z,84.59
2023-05-14T00:53:47.245Z,85.49
2023-05-14T00:56:50.529Z,85.48
2023-05-14T00:59:53.084Z,86.09
2023-05-14T01:02:55.720Z,86.68
2023-05-14T01:06:26.396Z,87.95
2023-05-14T01:09:46.337Z,87.94
2023-05-14T01:13:25.597Z,88.96
2023-05-14T01:16:29.106Z,89.08
2023-05-14T01:19:41.754Z,89.51
2023-05-14T01:22:44.175Z,89.97
2023-05-14T01:25:46.794Z,89.62
2023-05-14T01:28:49.706Z,89.79
2023-05-14T01:31:54.233Z,89.95
2023-05-14T01:34:58.608Z,90.51
2023-05-14T01:38:05.121Z,90.42
2023-05-14T01:41:07.630Z,90.64
2023-05-14T01:44:10.707Z,91.20
2023-05-14T01:47:13.440Z,91.17
2023-05-14T01:50:16.000Z,90.82
2023-05-14T01:53:18.392Z,90.51
2023-05-14T01:56:24.344Z,91.25
2023-05-14T01:59:26.859Z,91.57
2023-05-14T02:02:29.277Z,91.54
2023-05-14T02:05:31.747Z,92.10
2023-05-14T02:08:34.252Z,92.46
2023-05-14T02:11:36.730Z,92.46
2023-05-14T02:14:39.238Z,92.23
2023-05-14T02:17:41.713Z,92.65
2023-05-14T02:20:46.771Z,92.69
2023-05-14T02:23:50.218Z,92.54
2023-05-14T02:26:52.726Z,92.98
2023-05-14T02:29:56.655Z,92.96
2023-05-14T02:32:59.292Z,92.92
2023-05-14T02:36:01.742Z,93.60
2023-05-14T02:39:04.848Z,93.75
2023-05-14T02:42:07.553Z,95.25
2023-05-14T02:45:10.358Z,95.73
2023-05-14T02:48:12.931Z,96.68
2023-05-14T02:51:16.382Z,98.34
2023-05-14T02:54:18.800Z,99.06
2023-05-14T02:57:21.341Z,99.16
2023-05-14T03:00:24.271Z,98.96
2023-05-14T03:03:27.289Z,97.92
2023-05-14T03:06:31.230Z,97.16
2023-05-14T03:09:34.635Z,97.82
2023-05-14T03:12:38.572Z,96.92
2023-05-14T03:15:41.164Z,96.23
2023-05-14T03:18:43.702Z,95.24
2023-05-14T03:21:46.265Z,95.89
2023-05-14T03:24:48.764Z,94.27
2023-05-14T03:27:51.189Z,93.97
2023-05-14T03:30:53.739Z,93.15
2023-05-14T03:33:56.183Z,91.99
2023-05-14T03:36:58.576Z,90.85
2023-05-14T03:40:00.921Z,90.18
2023-05-14T03:43:03.338Z,89.27
2023-05-14T03:46:05.792Z,88.53
2023-05-14T03:49:08.952Z,87.17
2023-05-14T03:52:11.443Z,86.39
2023-05-14T03:55:13.959Z,85.86
2023-05-14T03:58:17.695Z,85.29
2023-05-14T04:01:20.140Z,83.92
2023-05-14T04:04:22.588Z,82.91
2023-05-14T04:07:25.013Z,82.10
2023-05-14T04:10:29.133Z,81.33
2023-05-14T04:13:31.604Z,81.21
2023-05-14T04:16:34.406Z,80.24
2023-05-14T04:19:36.917Z,79.34
2023-05-14T04:22:39.344Z,77.72
2023-05-14T04:25:42.193Z,77.31
2023-05-14T04:28:44.630Z,77.26
2023-05-14T04:31:47.152Z,76.44
2023-05-14T04:34:49.583Z,75.88
2023-05-14T04:37:52.062Z,75.07
2023-05-14T04:40:54.513Z,75.05
2023-05-14T04:43:57.094Z,75.01
2023-05-14T04:46:59.462Z,74.33
2023-05-14T04:50:02.352Z,73.84
2023-05-14T04:53:04.872Z,73.60
2023-05-14T04:56:07.477Z,73.39
2023-05-14T04:59:09.893Z,73.02
2023-05-14T05:02:12.268Z,72.74
2023-05-14T05:05:14.718Z,72.95
2023-05-14T05:08:17.080Z,72.42
2023-05-14T05:11:19.511Z,72.65
2023-05-14T05:14:21.985Z,72.53
2023-05-14T05:17:25.107Z,72.79
2023-05-14T05:20:28.329Z,72.58
2023-05-14T05:23:30.718Z,72.01
2023-05-14T05:26:33.244Z,71.76
2023-05-14T05:29:35.717Z,70.74
2023-05-14T05:32:38.285Z,71.20
2023-05-14T05:35:40.958Z,70.75
2023-05-14T05:38:43.484Z,70.00
2023-05-14T05:41:45.870Z,69.68
2023-05-14T05:44:48.339Z,70.21
2023-05-14T05:47:50.930Z,67.65
2023-05-14T05:50:53.409Z,67.27
2023-05-14T05:53:56.008Z,65.90
2023-05-14T05:56:59.225Z,65.00
2023-05-14T06:00:07.973Z,63.36
2023-05-14T06:03:15.205Z,63.44
2023-05-14T06:06:17.681Z,62.94
2023-05-14T06:09:20.148Z,62.26
2023-05-14T06:12:22.578Z,61.74
2023-05-14T06:15:25.043Z,63.52
2023-05-14T06:18:27.500Z,61.37
2023-05-14T06:21:29.904Z,61.68
2023-05-14T06:24:33.019Z,61.50
2023-05-14T06:27:35.388Z,61.97
2023-05-14T06:30:37.820Z,61.81
2023-05-14T06:33:40.561Z,61.54
2023-05-14T06:36:43.029Z,61.96
2023-05-14T06:39:50.141Z,62.54
2023-05-14T06:42:52.659Z,62.33
2023-05-14T06:45:55.622Z,62.17
2023-05-14T06:48:59.546Z,62.51
2023-05-14T06:52:02.364Z,62.50
2023-05-14T06:55:05.085Z,61.67
2023-05-14T06:58:08.281Z,60.67
2023-05-14T07:01:10.742Z,59.58
2023-05-14T07:04:13.226Z,60.80
2023-05-14T07:07:18.345Z,60.52
2023-05-14T07:10:20.926Z,60.51
2023-05-14T07:13:24.943Z,60.96
2023-05-14T07:16:28.841Z,61.81
2023-05-14T07:19:31.367Z,62.11
2023-05-14T07:22:33.903Z,61.86
2023-05-14T07:25:36.388Z,61.30
2023-05-14T07:28:38.901Z,59.40
2023-05-14T07:31:41.347Z,60.03
2023-05-14T07:34:43.875Z,60.40
2023-05-14T07:37:46.392Z,60.55
2023-05-14T07:40:48.840Z,58.99
2023-05-14T07:43:51.352Z,59.30
2023-05-14T07:46:53.843Z,59.28
2023-05-14T07:49:59.328Z,58.50
2023-05-14T07:53:01.802Z,56.33
2023-05-14T07:56:04.534Z,58.30
2023-05-14T07:59:07.471Z,58.71
2023-05-14T08:02:13.119Z,56.98
2023-05-14T08:05:15.933Z,57.85
2023-05-14T08:08:18.384Z,57.15
2023-05-14T08:11:22.397Z,56.94
2023-05-14T08:14:24.845Z,57.22
2023-05-14T08:17:27.401Z,55.78
2023-05-14T08:20:31.199Z,55.87
2023-05-14T08:23:33.684Z,56.25
2023-05-14T08:26:36.085Z,56.90
2023-05-14T08:29:38.526Z,56.50
2023-05-14T08:32:41.248Z,57.16
2023-05-14T08:35:43.800Z,55.86
2023-05-14T08:38:46.263Z,56.18
2023-05-14T08:41:48.747Z,56.50
2023-05-14T08:44:59.148Z,56.73
2023-05-14T08:48:05.644Z,57.12
2023-05-14T08:51:08.278Z,55.71
2023-05-14T08:54:10.780Z,54.92
2023-05-14T08:57:13.323Z,55.50
2023-05-14T09:00:15.988Z,56.83
2023-05-14T09:03:18.755Z,55.51
2023-05-14T09:06:22.297Z,55.25
2023-05-14T09:09:24.829Z,54.27
2023-05-14T09:12:27.343Z,54.03
2023-05-14T09:15:30.605Z,53.96
2023-05-14T09:18:33.221Z,53.74
2023-05-14T09:21:35.822Z,54.48
2023-05-14T09:24:41.882Z,53.61
2023-05-14T09:27:50.166Z,54.72
2023-05-14T09:30:52.748Z,54.49
2023-05-14T09:33:55.285Z,53.99
2023-05-14T09:37:08.536Z,53.89
2023-05-14T09:40:12.034Z,53.57
2023-05-14T09:43:14.959Z,53.34
2023-05-14T09:46:17.824Z,53.52
2023-05-14T09:49:20.646Z,53.47
2023-05-14T09:52:26.459Z,52.91
2023-05-14T09:55:29.362Z,51.79
2023-05-14T09:58:31.890Z,51.03
2023-05-14T10:01:34.608Z,50.76
2023-05-14T10:04:37.490Z,50.83
2023-05-14T10:07:48.286Z,49.20
2023-05-14T10:10:59.075Z,48.02
2023-05-14T10:14:08.683Z,47.43
2023-05-14T10:17:18.296Z,46.95
2023-05-14T10:20:21.074Z,47.89
2023-05-14T10:23:23.867Z,47.54
2023-05-14T10:26:26.583Z,48.50
2023-05-14T10:29:34.213Z,47.22
2023-05-14T10:32:38.025Z,46.82
2023-05-14T10:36:06.132Z,46.59
2023-05-14T10:39:09.144Z,47.67
2023-05-14T10:42:16.626Z,47.18
2023-05-14T10:45:19.138Z,46.01
2023-05-14T10:48:21.879Z,45.47
2023-05-14T10:51:24.428Z,45.00
2023-05-14T10:54:28.211Z,44.88
2023-05-14T10:57:31.697Z,41.57
2023-05-14T11:00:34.433Z,39.98
2023-05-14T11:03:43.020Z,39.81
2023-05-14T11:06:47.442Z,39.57
2023-05-14T11:09:51.023Z,40.15
2023-05-14T11:12:53.400Z,38.75
2023-05-14T11:15:56.108Z,38.40
2023-05-14T11:19:03.509Z,38.89
2023-05-14T11:22:06.645Z,38.31
2023-05-14T11:25:10.165Z,38.19
2023-05-14T11:28:12.565Z,37.85
2023-05-14T11:31:15.238Z,37.95
2023-05-14T11:34:17.681Z,38.10
2023-05-14T11:37:20.370Z,38.78
2023-05-14T11:40:22.968Z,38.18
2023-05-14T11:43:29.465Z,37.89
2023-05-14T11:46:32.087Z,38.22
2023-05-14T11:49:37.479Z,38.44
2023-05-14T11:52:41.372Z,38.72
2023-05-14T11:55:43.899Z,38.09
2023-05-14T11:58:49.420Z,38.42
2023-05-14T12:01:54.848Z,38.72
2023-05-14T12:04:57.564Z,38.80
2023-05-14T12:07:59.929Z,38.84
2023-05-14T12:11:02.377Z,39.35
2023-05-14T12:14:30.858Z,40.05
2023-05-14T12:17:33.410Z,40.10
2023-05-14T12:20:36.140Z,40.11
2023-05-14T12:23:38.937Z,40.39
2023-05-14T12:26:46.609Z,40.86
2023-05-14T12:29:48.980Z,40.79
2023-05-14T12:32:53.057Z,41.31
2023-05-14T12:36:09.921Z,41.94
2023-05-14T12:39:22.586Z,42.12
2023-05-14T12:42:25.023Z,42.83
2023-05-14T12:45:27.450Z,42.53
2023-05-14T12:48:29.986Z,43.98
2023-05-14T12:51:32.495Z,45.70
2023-05-14T12:54:34.871Z,45.62
2023-05-14T12:57:39.320Z,46.28
2023-05-14T13:00:42.251Z,45.33
2023-05-14T13:03:44.750Z,46.70
2023-05-14T13:06:47.548Z,46.96
2023-05-14T13:09:49.986Z,46.69
2023-05-14T13:12:52.782Z,44.83
2023-05-14T13:15:55.657Z,45.61
2023-05-14T13:18:58.332Z,45.56
2023-05-14T13:22:00.847Z,45.63
2023-05-14T13:25:03.459Z,46.89
2023-05-14T13:28:05.981Z,47.63
2023-05-14T13:31:12.618Z,48.12
2023-05-14T13:34:15.118Z,46.90
2023-05-14T13:37:17.614Z,46.78
2023-05-14T13:40:20.085Z,46.52
2023-05-14T13:43:22.463Z,46.97
2023-05-14T13:46:25.005Z,46.75
2023-05-14T13:49:27.476Z,47.28
2023-05-14T13:52:30.040Z,47.51
2023-05-14T13:55:32.473Z,46.09
2023-05-14T13:58:35.023Z,47.05
2023-05-14T14:01:37.524Z,48.22
2023-05-14T14:04:40.014Z,46.33
2023-05-14T14:07:42.747Z,47.82
2023-05-14T14:10:45.343Z,47.06
2023-05-14T14:13:47.917Z,47.93
2023-05-14T14:16:50.961Z,50.98
2023-05-14T14:19:53.511Z,52.04
2023-05-14T14:22:56.201Z,53.31
2023-05-14T14:25:58.679Z,53.00
2023-05-14T14:29:01.110Z,52.85
2023-05-14T14:32:04.271Z,53.58
2023-05-14T14:35:07.140Z,54.42
2023-05-14T14:38:09.679Z,54.74
2023-05-14T14:41:12.319Z,55.36
2023-05-14T14:44:14.767Z,55.13
2023-05-14T14:47:17.296Z,58.44
2023-05-14T14:50:19.825Z,64.09
2023-05-14T14:53:22.432Z,66.31
2023-05-14T14:56:26.982Z,67.22
2023-05-14T14:59:29.477Z,68.72
2023-05-14T15:02:32.042Z,69.49
2023-05-14T15:05:34.703Z,71.61
2023-05-14T15:08:37.350Z,71.59
2023-05-14T15:11:39.933Z,73.60
2023-05-14T15:14:42.392Z,76.09
2023-05-14T15:17:44.932Z,78.37
2023-05-14T15:20:47.390Z,81.43
2023-05-14T15:23:49.851Z,82.46
2023-05-14T15:26:53.388Z,84.64
2023-05-14T15:29:56.262Z,86.15
2023-05-14T15:32:58.744Z,87.17
2023-05-14T15:36:01.182Z,88.02
2023-05-14T15:39:03.652Z,91.52
2023-05-14T15:42:06.580Z,93.16
2023-05-14T15:45:10.435Z,94.70
2023-05-14T15:48:12.872Z,97.06
2023-05-14T15:51:15.431Z,96.00
2023-05-14T15:54:18.011Z,95.12
2023-05-14T15:57:20.451Z,95.08
2023-05-14T16:00:24.868Z,94.11
2023-05-14T16:03:27.666Z,95.12
2023-05-14T16:06:30.206Z,94.53
2023-05-14T16:09:33.735Z,91.29
2023-05-14T16:12:36.203Z,90.02
2023-05-14T16:15:39.887Z,87.55
2023-05-14T16:18:43.270Z,92.07
2023-05-14T16:21:45.733Z,90.93
2023-05-14T16:24:48.219Z,94.03
2023-05-14T16:27:50.787Z,93.41
2023-05-14T16:30:53.266Z,97.75
2023-05-14T16:33:55.833Z,95.99
2023-05-14T16:36:59.496Z,98.02
2023-05-14T16:40:02.129Z,98.24
2023-05-14T16:43:04.656Z,97.64
2023-05-14T16:46:07.128Z,98.71
2023-05-14T16:49:09.616Z,100.00
2023-05-14T16:52:12.067Z,100.00
2023-05-14T16:55:14.562Z,100.00
2023-05-14T16:58:17.035Z,100.00
2023-05-14T17:01:19.570Z,100.00
2023-05-14T17:04:22.789Z,100.00
2023-05-14T17:07:25.224Z,100.00
2023-05-14T17:10:27.742Z,100.00
2023-05-14T17:13:30.555Z,100.00
2023-05-14T17:16:33.049Z,100.00
2023-05-14T17:19:35.552Z,100.00
2023-05-14T17:22:38.096Z,100.00
2023-05-14T17:25:40.681Z,100.00
2023-05-14T17:28:45.489Z,100.00
2023-05-14T17:31:48.733Z,100.00
2023-05-14T17:34:51.376Z,100.00
2023-05-14T17:37:53.959Z,100.00
2023-05-14T17:40:56.480Z,100.00
2023-05-14T17:43:59.467Z,100.00
2023-05-14T17:47:03.182Z,100.00
2023-05-14T17:50:06.148Z,100.00
2023-05-14T17:53:08.759Z,100.00
2023-05-14T17:56:11.396Z,100.00
2023-05-14T17:59:13.861Z,100.00
2023-05-14T18:02:16.304Z,100.00
2023-05-14T18:05:20.934Z,100.00
2023-05-14T18:08:23.518Z,100.00
2023-05-14T18:11:26.524Z,100.00
2023-05-14T18:14:28.972Z,100.00
2023-05-14T18:17:31.457Z,100.00
2023-05-14T18:20:35.537Z,100.00
2023-05-14T18:23:38.206Z,100.00
2023-05-14T18:26:40.890Z,100.00
2023-05-14T18:29:43.926Z,100.00
2023-05-14T18:32:46.753Z,100.00
2023-05-14T18:35:49.268Z,100.00
2023-05-14T18:38:51.741Z,100.00
2023-05-14T18:41:55.122Z,100.00
2023-05-14T18:44:57.505Z,100.00
2023-05-14T18:48:00.164Z,100.00
2023-05-14T18:51:02.896Z,100.00
2023-05-14T18:54:05.399Z,100.00
2023-05-14T18:57:08.123Z,100.00
2023-05-14T19:00:11.171Z,100.00
2023-05-14T19:03:13.898Z,100.00
2023-05-14T19:06:17.861Z,100.00
2023-05-14T19:09:21.334Z,100.00
2023-05-14T19:12:24.047Z,100.00
2023-05-14T19:15:26.826Z,100.00
2023-05-14T19:18:29.787Z,100.00
2023-05-14T19:21:32.389Z,100.00
2023-05-14T19:24:35.138Z,100.00
2023-05-14T19:27:38.476Z,100.00
2023-05-14T19:30:41.376Z,100.00
2023-05-14T19:33:43.989Z,100.00
2023-05-14T19:36:46.638Z,100.00
2023-05-14T19:39:49.145Z,100.00
2023-05-14T19:42:51.646Z,100.00
2023-05-14T19:45:54.385Z,100.00
2023-05-14T19:48:56.999Z,100.00
2023-05-14T19:51:59.437Z,100.00
2023-05-14T19:55:01.920Z,100.00
2023-05-14T19:58:07.766Z,100.00
2023-05-14T20:01:10.258Z,100.00
2023-05-14T20:04:14.124Z,100.00
2023-05-14T20:07:17.205Z,100.00
2023-05-14T20:10:20.627Z,100.00
2023-05-14T20:13:25.056Z,100.00
2023-05-14T20:16:28.660Z,100.00
2023-05-14T20:19:31.260Z,100.00
2023-05-14T20:22:33.701Z,100.00
2023-05-14T20:25:36.149Z,100.00
2023-05-14T20:28:38.614Z,100.00
2023-05-14T20:31:41.181Z,100.00
2023-05-14T20:34:43.880Z,100.00
2023-05-14T20:37:47.287Z,100.00
2023-05-14T20:40:49.809Z,100.00
2023-05-14T20:43:52.294Z,100.00
2023-05-14T20:46:54.805Z,100.00
2023-05-14T20:49:57.220Z,100.00
2023-05-14T20:52:59.790Z,100.00
2023-05-14T20:56:02.357Z,100.00
2023-05-14T20:59:04.762Z,100.00
2023-05-14T21:02:07.522Z,100.00
2023-05-14T21:05:10.092Z,100.00
2023-05-14T21:08:12.669Z,100.00
2023-05-14T21:11:15.212Z,100.00
2023-05-14T21:14:17.666Z,100.00
2023-05-14T21:17:20.304Z,100.00
2023-05-14T21:20:23.074Z,100.00
2023-05-14T21:23:25.527Z,100.00
2023-05-14T21:26:30.706Z,100.00
2023-05-14T21:29:33.157Z,100.00
2023-05-14T21:32:35.641Z,100.00
2023-05-14T21:35:38.202Z,100.00
2023-05-14T21:38:41.008Z,100.00
2023-05-14T21:41:43.496Z,100.00
2023-05-14T21:44:45.919Z,100.00
2023-05-14T21:47:48.448Z,100.00
2023-05-14T21:50:50.900Z,100.00
2023-05-14T21:53:53.317Z,100.00
2023-05-14T21:56:55.822Z,100.00
2023-05-14T21:59:58.303Z,100.00
2023-05-14T22:03:00.763Z,100.00
2023-05-14T22:06:03.490Z,100.00
2023-05-14T22:09:05.907Z,100.00
2023-05-14T22:12:08.476Z,100.00
2023-05-14T22:15:11.621Z,100.00
2023-05-14T22:18:15.416Z,100.00
2023-05-14T22:21:17.876Z,100.00
2023-05-14T22:24:20.342Z,100.00
2023-05-14T22:27:23.031Z,100.00
2023-05-14T22:30:25.552Z,100.00
2023-05-14T22:33:27.967Z,100.00
2023-05-14T22:36:30.496Z,100.00
2023-05-14T22:39:32.929Z,100.00
2023-05-14T22:42:35.506Z,100.00
2023-05-14T22:45:37.990Z,100.00
2023-05-14T22:48:40.514Z,100.00
2023-05-14T22:51:42.905Z,100.00
2023-05-14T22:54:46.654Z,100.00
2023-05-14T22:57:49.124Z,100.00
2023-05-14T23:00:51.518Z,100.00
2023-05-14T23:03:53.933Z,100.00
2023-05-14T23:06:56.348Z,100.00
2023-05-14T23:09:58.742Z,100.00
2023-05-14T23:13:01.367Z,100.00
2023-05-14T23:16:04.177Z,100.00
2023-05-14T23:19:06.893Z,100.00
2023-05-14T23:22:09.464Z,100.00
2023-05-14T23:25:11.873Z,100.00
2023-05-14T23:28:14.593Z,100.00
2023-05-14T23:31:17.022Z,100.00
2023-05-14T23:34:19.594Z,100.00
2023-05-14T23:37:22.083Z,100.00
2023-05-14T23:40:24.541Z,100.00
2023-05-14T23:43:27.034Z,100.00
2023-05-14T23:46:29.657Z,100.00
2023-05-14T23:49:32.256Z,100.00
2023-05-14T23:52:34.760Z,100.00
2023-05-14T23:55:37.149Z,100.00
2023-05-14T23:58:39.615Z,100.00
